Kelley, IA (50134)

2:47 AM CST on February 10, 2016 (GMT -0600)
Rural Slater, IA | | Change Station
CLOSE
Current Station
Personal Weather Station
Location: Slater, IA
Elevation: 1037 ft
Nearby Weather Stations

Elev 1037 ft 41.88 °N, 93.67 °W | Updated 10 minutes ago

Overcast
Overcast
12.0 °F
Feels Like 3 °F
N
5.8
Wind Variable Wind from NW

Today
High -- | Low -- °F
--% Chance of Precip.
Yesterday
High -- | Low -- °F
Precip. -- in
Pressure 30.19 in
Visibility 10.0 miles
Clouds Mostly Cloudy 5500 ft
Windchill 3 °F
Dew Point 8 °F
Humidity 83%
Rainfall 0.00 in
Snow Depth Not available.
7:17 AM 5:40 PM
Waxing Crescent, 4% visible
METAR KAMW 100753Z AUTO 34010KT 10SM BKN055 M11/M14 A3014 RMK AO2 SLP223 T11111144
Pressure 30.19 in
Visibility 10.0 miles
Clouds Mostly Cloudy 5500 ft
Windchill 3 °F
Dew Point 8 °F
Humidity 83%
Rainfall 0.00 in
Snow Depth Not available.
7:17 AM 5:40 PM
Waxing Crescent, 4% visible
METAR KAMW 100753Z AUTO 34010KT 10SM BKN055 M11/M14 A3014 RMK AO2 SLP223 T11111144

10-Day Weather Forecast

Almanac

Astronomy

Feb. 10, 2016 Rise Set
Actual Time
Civil Twilight
Nautical Twilight
Astronomical Twilight
Moon
Length of Visible Light
Length of Day
Tomorrow will be .
, % of the Moon is Illuminated

Today's Extremes

State Highs State Lows

Community

WunderPhotos

Upload Photos

1,891,826 photos uploaded!

WunderBlog® & News

Nearby

Air Quality

  Air Quality AQ Index Pollutant
Not available.

Snow Depth

Station Depth Elevation

Earthquake Activity

City Distance Mag. Time & Date
Minimum magnitude displayed is 2.5.

Coastal Water Temperatures

Place Temperature

Stations

Nearby Weather Stations

Station Location Temp. Windchill Dew Point Humidity Wind Precip. Elev Updated Type
                   

Watches & Warnings

There are currently no watches in effect.